Harry B. Settoon — WDE5658 — position and weather

sailwx.info

Track history (hours):
 
Tides and Currents Weather Stations Pressure Air Temp Water Temp Dewpoint Dewpoint Depression Visibility Wind Speed Wind Dir Waves Ship Positions

Harry B. Settoon

Owner: Settoon Towing, LLC, Houma, LA. More information available from US FCC via Universal Licensing System and Coast Guard Vessel Documentation Center.

Last reported at 2015-Aug-31 07:29 UTC. Time now 2015-Aug-31 10:55 UTC.
Position N 29°35' W 090°58'.

; draft 1.8 m.

Type: Tug. MMSI: 367369920.

Date/timePositionNaut miles runAvg speedWind from/ knotsBaromVisibWave heightAir tempDewpointWater temp
2015-Aug-31 07:29N 29°35' W 090°58'6 6.1
2015-Aug-31 06:33N 29°32' W 090°52'6 5.9
2015-Aug-31 05:34N 29°33' W 090°45'5 4.9
2015-Aug-31 04:34N 29°37' W 090°42'0 0.0
2015-Aug-31 03:34N 29°37' W 090°42'0 0.0
2015-Aug-31 02:33N 29°37' W 090°42'0 0.0
2015-Aug-31 01:34N 29°37' W 090°42'0 0.0
2015-Aug-31 00:34N 29°37' W 090°42'0 0.0
2015-Aug-30 23:34N 29°37' W 090°42'1 0.7
2015-Aug-30 22:34N 29°36' W 090°41'1 1.5
2015-Aug-30 21:34N 29°36' W 090°40'0 0.0
2015-Aug-30 20:33N 29°36' W 090°40'0 0.0
2015-Aug-30 19:34N 29°36' W 090°40'0 0.0
2015-Aug-30 18:33N 29°36' W 090°40'0 0.0
2015-Aug-30 17:33N 29°36' W 090°40'0 0.0
2015-Aug-30 16:33N 29°36' W 090°40'0 0.0
2015-Aug-30 15:33N 29°36' W 090°40'0 0.0
2015-Aug-30 14:34N 29°36' W 090°40'0 0.2
2015-Aug-30 13:33N 29°36' W 090°40'3 2.9
2015-Aug-30 12:34N 29°35' W 090°43'4 4.3
2015-Aug-30 11:33N 29°32' W 090°47'12 0.5
2015-Aug-29 10:30N 29°37' W 090°60'5 5.1
2015-Aug-29 09:33N 29°34' W 090°56'5 5.2
2015-Aug-29 08:33N 29°32' W 090°50'5 5.0
2015-Aug-29 07:33N 29°34' W 090°44'4 3.9
2015-Aug-29 06:33N 29°37' W 090°42'0 0.0
2015-Aug-29 05:33N 29°37' W 090°42'0 0.0
2015-Aug-29 04:33N 29°37' W 090°42'0 0.0
2015-Aug-29 03:33N 29°37' W 090°42'0 0.0
2015-Aug-29 02:33N 29°37' W 090°42'0 0.0
2015-Aug-29 01:33N 29°37' W 090°42'0 0.1
2015-Aug-29 00:33N 29°37' W 090°42'0 0.0
2015-Aug-28 23:33N 29°37' W 090°42'0 0.0
2015-Aug-28 22:33N 29°37' W 090°42'0 0.0
2015-Aug-28 21:33N 29°37' W 090°42'0 0.0
2015-Aug-28 20:33N 29°37' W 090°42'0 0.0
2015-Aug-28 19:33N 29°37' W 090°42'0 0.0
2015-Aug-28 18:33N 29°37' W 090°42'0 0.0
2015-Aug-28 17:33N 29°37' W 090°42'0 0.0
2015-Aug-28 16:33N 29°37' W 090°42'0 0.0
2015-Aug-28 15:33N 29°37' W 090°42'0 0.0
2015-Aug-28 14:33N 29°37' W 090°42'0 0.0
2015-Aug-28 13:33N 29°37' W 090°42'0 0.0
2015-Aug-28 12:33N 29°37' W 090°42'0 0.0
2015-Aug-28 11:33N 29°37' W 090°42'0 0.0
2015-Aug-28 10:33N 29°37' W 090°42'0 0.0
2015-Aug-28 09:33N 29°37' W 090°42'0 0.0
2015-Aug-28 08:33N 29°37' W 090°42'0 0.0
2015-Aug-28 07:33N 29°37' W 090°42'0 0.0
2015-Aug-28 06:33N 29°37' W 090°42'0 0.0
2015-Aug-28 05:33N 29°37' W 090°42'0 0.0
2015-Aug-28 04:33N 29°37' W 090°42'0 0.0
2015-Aug-28 03:33N 29°37' W 090°42'0 0.0
2015-Aug-28 02:33N 29°37' W 090°42'0 0.0
2015-Aug-28 01:33N 29°37' W 090°42'0 0.0
2015-Aug-28 00:33N 29°37' W 090°42'0 0.0
2015-Aug-27 23:33N 29°37' W 090°42'0 0.0
2015-Aug-27 22:33N 29°37' W 090°42'0 0.0
2015-Aug-27 21:33N 29°37' W 090°42'0 0.0
2015-Aug-27 20:33N 29°37' W 090°42'0 0.0
2015-Aug-27 19:33N 29°37' W 090°42'0 0.0
2015-Aug-27 18:33N 29°37' W 090°42'0 0.0
2015-Aug-27 17:33N 29°37' W 090°42'0 0.0
2015-Aug-27 16:33N 29°37' W 090°42'0 0.0
2015-Aug-27 15:33N 29°37' W 090°42'0 0.0
2015-Aug-27 14:33N 29°37' W 090°42'0 0.0
2015-Aug-27 13:33N 29°37' W 090°42'0 0.0
2015-Aug-27 12:33N 29°37' W 090°42'0 0.0
2015-Aug-27 11:33N 29°37' W 090°42'0 0.0
2015-Aug-27 10:33N 29°37' W 090°42'0 0.0
2015-Aug-27 09:33N 29°37' W 090°42'3 2.6
2015-Aug-27 08:33N 29°34' W 090°43'2 2.1
2015-Aug-27 07:33N 29°33' W 090°45'0 0.0
2015-Aug-27 06:33N 29°33' W 090°45'3 2.7
2015-Aug-27 05:33N 29°32' W 090°48'9 0.4
2015-Aug-26 06:30N 29°35' W 090°58'6 6.2
2015-Aug-26 05:33N 29°32' W 090°52'6 6.1
2015-Aug-26 04:33N 29°34' W 090°45'4 4.2
2015-Aug-26 03:33N 29°37' W 090°42'0 0.0
2015-Aug-26 02:33N 29°37' W 090°42'0 0.0
2015-Aug-26 01:33N 29°37' W 090°42'0 0.0
2015-Aug-26 00:33N 29°37' W 090°42'0 0.0
2015-Aug-25 23:33N 29°37' W 090°42'0 0.0
2015-Aug-25 22:33N 29°37' W 090°42'0 0.1
2015-Aug-25 21:33N 29°37' W 090°42'0 0.0
2015-Aug-25 20:33N 29°37' W 090°42'0 0.0
2015-Aug-25 19:33N 29°37' W 090°42'0 0.0
2015-Aug-25 18:33N 29°37' W 090°42'0 0.0
2015-Aug-25 17:33N 29°37' W 090°42'1 0.9
2015-Aug-25 16:33N 29°36' W 090°43'6 5.5
2015-Aug-25 15:32N 29°32' W 090°47'  
2015-Aug-22 17:25N 29°37' W 090°59'5 5.8
2015-Aug-22 16:32N 29°33' W 090°54'6 6.3
2015-Aug-22 15:33N 29°32' W 090°47'4 4.4
2015-Aug-22 14:33N 29°34' W 090°43'1 0.6
2015-Aug-22 13:33N 29°35' W 090°43'2 1.9
2015-Aug-22 12:33N 29°37' W 090°42'1 0.6
2015-Aug-22 11:33N 29°37' W 090°42'0 0.0
2015-Aug-22 10:34N 29°37' W 090°42'0 0.0
2015-Aug-22 09:34N 29°37' W 090°42'0 0.0
2015-Aug-22 08:34N 29°37' W 090°42'0 0.0
2015-Aug-22 07:33N 29°37' W 090°42'0 0.1
2015-Aug-22 06:33N 29°37' W 090°42'0 0.0
2015-Aug-22 05:33N 29°37' W 090°42'0 0.0
2015-Aug-22 04:33N 29°37' W 090°42'0 0.0
2015-Aug-22 03:33N 29°37' W 090°42'0 0.0
2015-Aug-22 02:33N 29°37' W 090°42'0 0.0
2015-Aug-22 01:33N 29°37' W 090°42'2 2.5
2015-Aug-22 00:33N 29°35' W 090°43'4 3.6
2015-Aug-21 23:33N 29°32' W 090°46'  
Track history (hours):
 
Tides and Currents Weather Stations Pressure Air Temp Water Temp Dewpoint Dewpoint Depression Visibility Wind Speed Wind Dir Waves Ship Positions

Harry B. Settoon

Owner: Settoon Towing, LLC, Houma, LA. More information available from US FCC via Universal Licensing System and Coast Guard Vessel Documentation Center.

Last reported at 2015-Aug-31 07:29 UTC. Time now 2015-Aug-31 10:55 UTC.
Position N 29°35' W 090°58'.

; draft 1.8 m.

Type: Tug. MMSI: 367369920.

Date/timePositionNaut miles runAvg speedWind from/ knotsBaromVisibWave heightAir tempDewpointWater temp
2015-Aug-31 07:29N 29°35' W 090°58'6 6.1
2015-Aug-31 06:33N 29°32' W 090°52'6 5.9
2015-Aug-31 05:34N 29°33' W 090°45'5 4.9
2015-Aug-31 04:34N 29°37' W 090°42'0 0.0
2015-Aug-31 03:34N 29°37' W 090°42'0 0.0
2015-Aug-31 02:33N 29°37' W 090°42'0 0.0
2015-Aug-31 01:34N 29°37' W 090°42'0 0.0
2015-Aug-31 00:34N 29°37' W 090°42'0 0.0
2015-Aug-30 23:34N 29°37' W 090°42'1 0.7
2015-Aug-30 22:34N 29°36' W 090°41'1 1.5
2015-Aug-30 21:34N 29°36' W 090°40'0 0.0
2015-Aug-30 20:33N 29°36' W 090°40'0 0.0
2015-Aug-30 19:34N 29°36' W 090°40'0 0.0
2015-Aug-30 18:33N 29°36' W 090°40'0 0.0
2015-Aug-30 17:33N 29°36' W 090°40'0 0.0
2015-Aug-30 16:33N 29°36' W 090°40'0 0.0
2015-Aug-30 15:33N 29°36' W 090°40'0 0.0
2015-Aug-30 14:34N 29°36' W 090°40'0 0.2
2015-Aug-30 13:33N 29°36' W 090°40'3 2.9
2015-Aug-30 12:34N 29°35' W 090°43'4 4.3
2015-Aug-30 11:33N 29°32' W 090°47'12 0.5
2015-Aug-29 10:30N 29°37' W 090°60'5 5.1
2015-Aug-29 09:33N 29°34' W 090°56'5 5.2
2015-Aug-29 08:33N 29°32' W 090°50'5 5.0
2015-Aug-29 07:33N 29°34' W 090°44'4 3.9
2015-Aug-29 06:33N 29°37' W 090°42'0 0.0
2015-Aug-29 05:33N 29°37' W 090°42'0 0.0
2015-Aug-29 04:33N 29°37' W 090°42'0 0.0
2015-Aug-29 03:33N 29°37' W 090°42'0 0.0
2015-Aug-29 02:33N 29°37' W 090°42'0 0.0
2015-Aug-29 01:33N 29°37' W 090°42'0 0.1
2015-Aug-29 00:33N 29°37' W 090°42'0 0.0
2015-Aug-28 23:33N 29°37' W 090°42'0 0.0
2015-Aug-28 22:33N 29°37' W 090°42'0 0.0
2015-Aug-28 21:33N 29°37' W 090°42'0 0.0
2015-Aug-28 20:33N 29°37' W 090°42'0 0.0
2015-Aug-28 19:33N 29°37' W 090°42'0 0.0
2015-Aug-28 18:33N 29°37' W 090°42'0 0.0
2015-Aug-28 17:33N 29°37' W 090°42'0 0.0
2015-Aug-28 16:33N 29°37' W 090°42'0 0.0
2015-Aug-28 15:33N 29°37' W 090°42'0 0.0
2015-Aug-28 14:33N 29°37' W 090°42'0 0.0
2015-Aug-28 13:33N 29°37' W 090°42'0 0.0
2015-Aug-28 12:33N 29°37' W 090°42'0 0.0
2015-Aug-28 11:33N 29°37' W 090°42'0 0.0
2015-Aug-28 10:33N 29°37' W 090°42'0 0.0
2015-Aug-28 09:33N 29°37' W 090°42'0 0.0
2015-Aug-28 08:33N 29°37' W 090°42'0 0.0
2015-Aug-28 07:33N 29°37' W 090°42'0 0.0
2015-Aug-28 06:33N 29°37' W 090°42'0 0.0
2015-Aug-28 05:33N 29°37' W 090°42'0 0.0
2015-Aug-28 04:33N 29°37' W 090°42'0 0.0
2015-Aug-28 03:33N 29°37' W 090°42'0 0.0
2015-Aug-28 02:33N 29°37' W 090°42'0 0.0
2015-Aug-28 01:33N 29°37' W 090°42'0 0.0
2015-Aug-28 00:33N 29°37' W 090°42'0 0.0
2015-Aug-27 23:33N 29°37' W 090°42'0 0.0
2015-Aug-27 22:33N 29°37' W 090°42'0 0.0
2015-Aug-27 21:33N 29°37' W 090°42'0 0.0
2015-Aug-27 20:33N 29°37' W 090°42'0 0.0
2015-Aug-27 19:33N 29°37' W 090°42'0 0.0
2015-Aug-27 18:33N 29°37' W 090°42'0 0.0
2015-Aug-27 17:33N 29°37' W 090°42'0 0.0
2015-Aug-27 16:33N 29°37' W 090°42'0 0.0
2015-Aug-27 15:33N 29°37' W 090°42'0 0.0
2015-Aug-27 14:33N 29°37' W 090°42'0 0.0
2015-Aug-27 13:33N 29°37' W 090°42'0 0.0
2015-Aug-27 12:33N 29°37' W 090°42'0 0.0
2015-Aug-27 11:33N 29°37' W 090°42'0 0.0
2015-Aug-27 10:33N 29°37' W 090°42'0 0.0
2015-Aug-27 09:33N 29°37' W 090°42'3 2.6
2015-Aug-27 08:33N 29°34' W 090°43'2 2.1
2015-Aug-27 07:33N 29°33' W 090°45'0 0.0
2015-Aug-27 06:33N 29°33' W 090°45'3 2.7
2015-Aug-27 05:33N 29°32' W 090°48'9 0.4
2015-Aug-26 06:30N 29°35' W 090°58'6 6.2
2015-Aug-26 05:33N 29°32' W 090°52'6 6.1
2015-Aug-26 04:33N 29°34' W 090°45'4 4.2
2015-Aug-26 03:33N 29°37' W 090°42'0 0.0
2015-Aug-26 02:33N 29°37' W 090°42'0 0.0
2015-Aug-26 01:33N 29°37' W 090°42'0 0.0
2015-Aug-26 00:33N 29°37' W 090°42'0 0.0
2015-Aug-25 23:33N 29°37' W 090°42'0 0.0
2015-Aug-25 22:33N 29°37' W 090°42'0 0.1
2015-Aug-25 21:33N 29°37' W 090°42'0 0.0
2015-Aug-25 20:33N 29°37' W 090°42'0 0.0
2015-Aug-25 19:33N 29°37' W 090°42'0 0.0
2015-Aug-25 18:33N 29°37' W 090°42'0 0.0
2015-Aug-25 17:33N 29°37' W 090°42'1 0.9
2015-Aug-25 16:33N 29°36' W 090°43'6 5.5
2015-Aug-25 15:32N 29°32' W 090°47'  
2015-Aug-22 17:25N 29°37' W 090°59'5 5.8
2015-Aug-22 16:32N 29°33' W 090°54'6 6.3
2015-Aug-22 15:33N 29°32' W 090°47'4 4.4
2015-Aug-22 14:33N 29°34' W 090°43'1 0.6
2015-Aug-22 13:33N 29°35' W 090°43'2 1.9
2015-Aug-22 12:33N 29°37' W 090°42'1 0.6
2015-Aug-22 11:33N 29°37' W 090°42'0 0.0
2015-Aug-22 10:34N 29°37' W 090°42'0 0.0
2015-Aug-22 09:34N 29°37' W 090°42'0 0.0
2015-Aug-22 08:34N 29°37' W 090°42'0 0.0
2015-Aug-22 07:33N 29°37' W 090°42'0 0.1
2015-Aug-22 06:33N 29°37' W 090°42'0 0.0
2015-Aug-22 05:33N 29°37' W 090°42'0 0.0
2015-Aug-22 04:33N 29°37' W 090°42'0 0.0
2015-Aug-22 03:33N 29°37' W 090°42'0 0.0
2015-Aug-22 02:33N 29°37' W 090°42'0 0.0
2015-Aug-22 01:33N 29°37' W 090°42'2 2.5
2015-Aug-22 00:33N 29°35' W 090°43'4 3.6
2015-Aug-21 23:33N 29°32' W 090°46'  

Dump ship's entire track history